createdAt,value
2019-04-28T00:02:08.413Z,100517.59
2019-04-28T00:04:39.088Z,100517.94
2019-04-28T00:07:08.087Z,100517.97
2019-04-28T00:09:37.756Z,100511.87
2019-04-28T00:12:07.744Z,100517.67
2019-04-28T00:14:37.599Z,100515.75
2019-04-28T00:17:08.243Z,100500.56
2019-04-28T00:19:40.733Z,100506.50
2019-04-28T00:22:12.558Z,100506.75
2019-04-28T00:24:53.138Z,100494.69
2019-04-28T00:27:22.312Z,100500.16
2019-04-28T00:29:52.085Z,100498.77
2019-04-28T00:32:22.016Z,100497.14
2019-04-28T00:34:51.890Z,100497.13
2019-04-28T00:37:23.366Z,100505.31
2019-04-28T00:39:53.267Z,100489.14
2019-04-28T00:42:23.138Z,100491.16
2019-04-28T00:44:52.883Z,100489.49
2019-04-28T00:47:22.691Z,100486.96
2019-04-28T00:49:52.512Z,100495.14
2019-04-28T00:52:22.411Z,100486.84
2019-04-28T00:54:52.900Z,100492.05
2019-04-28T00:57:22.733Z,100488.24
2019-04-28T00:59:57.982Z,100479.81
2019-04-28T01:02:28.361Z,100476.06
2019-04-28T01:04:58.175Z,100471.55
2019-04-28T01:07:28.035Z,100476.28
2019-04-28T01:09:57.901Z,100476.47
2019-04-28T01:12:27.796Z,100481.67
2019-04-28T01:14:59.671Z,100470.90
2019-04-28T01:17:30.816Z,100472.64
2019-04-28T01:20:17.431Z,100463.33
2019-04-28T01:22:47.225Z,100475.20
2019-04-28T01:25:17.119Z,100473.81
2019-04-28T01:27:50.418Z,100478.18
2019-04-28T01:30:23.149Z,100473.24
2019-04-28T01:32:54.615Z,100473.94
2019-04-28T01:35:24.462Z,100462.30
2019-04-28T01:37:54.297Z,100439.76
2019-04-28T01:40:24.256Z,100426.85
2019-04-28T01:42:54.158Z,100431.22
2019-04-28T01:45:24.001Z,100417.02
2019-04-28T01:47:53.969Z,100415.70
2019-04-28T01:50:23.713Z,100411.39
2019-04-28T01:52:53.535Z,100406.83
2019-04-28T01:55:23.347Z,100403.90
2019-04-28T01:57:53.255Z,100405.71
2019-04-28T02:00:25.572Z,100396.63
2019-04-28T02:02:54.748Z,100399.93
2019-04-28T02:05:24.591Z,100402.17
2019-04-28T02:07:54.514Z,100396.94
2019-04-28T02:10:24.366Z,100393.93
2019-04-28T02:12:54.176Z,100393.75
2019-04-28T02:15:24.029Z,100391.45
2019-04-28T02:17:53.907Z,100397.89
2019-04-28T02:20:24.214Z,100398.22
2019-04-28T02:22:59.882Z,100392.00
2019-04-28T02:25:29.915Z,100387.61
2019-04-28T02:27:59.760Z,100392.05
2019-04-28T02:30:44.056Z,100382.33
2019-04-28T02:33:01.843Z,100383.72
2019-04-28T02:35:34.105Z,100386.71
2019-04-28T02:38:04.304Z,100382.86
2019-04-28T02:40:34.072Z,100387.80
2019-04-28T02:43:03.914Z,100373.67
2019-04-28T02:45:36.414Z,100382.45
2019-04-28T02:48:07.893Z,100386.43
2019-04-28T02:50:42.407Z,100376.52
2019-04-28T02:53:21.077Z,100390.22
2019-04-28T02:55:51.466Z,100386.39
2019-04-28T02:58:22.383Z,100387.37
2019-04-28T03:01:06.750Z,100396.30
2019-04-28T03:03:24.079Z,100386.77
2019-04-28T03:05:53.895Z,100399.48
2019-04-28T03:08:23.656Z,100386.55
2019-04-28T03:10:53.466Z,100380.63
2019-04-28T03:13:23.362Z,100382.42
2019-04-28T03:15:53.181Z,100381.64
2019-04-28T03:18:24.530Z,100369.09
2019-04-28T03:20:54.279Z,100378.95
2019-04-28T03:23:24.037Z,100377.58
2019-04-28T03:25:58.150Z,100391.02
2019-04-28T03:28:35.594Z,100393.56
2019-04-28T03:31:36.720Z,100397.13
2019-04-28T03:33:48.043Z,100391.61
2019-04-28T03:36:15.027Z,100388.34
2019-04-28T03:38:42.833Z,100398.78
2019-04-28T03:41:12.675Z,100394.42
2019-04-28T03:43:42.499Z,100394.39
2019-04-28T03:46:16.589Z,100391.80
2019-04-28T03:48:46.398Z,100386.30
2019-04-28T03:51:16.199Z,100390.69
2019-04-28T03:53:46.114Z,100402.99
2019-04-28T03:56:15.959Z,100404.02
2019-04-28T03:58:45.713Z,100407.78
2019-04-28T04:01:15.610Z,100415.09
2019-04-28T04:03:45.573Z,100411.32
2019-04-28T04:06:15.451Z,100405.38
2019-04-28T04:08:45.261Z,100413.62
2019-04-28T04:11:16.639Z,100412.25
2019-04-28T04:13:51.485Z,100413.58
2019-04-28T04:16:40.543Z,100418.31
2019-04-28T04:19:12.171Z,100411.80
2019-04-28T04:21:42.109Z,100412.88
2019-04-28T04:24:11.954Z,100409.09
2019-04-28T04:26:41.849Z,100407.41
2019-04-28T04:29:12.079Z,100409.95
2019-04-28T04:31:41.925Z,100420.42
2019-04-28T04:34:11.757Z,100425.95
2019-04-28T04:36:41.976Z,100429.25
2019-04-28T04:39:11.858Z,100430.33
2019-04-28T04:41:43.706Z,100434.45
2019-04-28T04:44:13.272Z,100426.21
2019-04-28T04:46:44.010Z,100422.97
2019-04-28T04:49:13.862Z,100420.27
2019-04-28T04:51:44.099Z,100417.55
2019-04-28T04:54:14.105Z,100421.13
2019-04-28T04:56:44.054Z,100421.11
2019-04-28T04:59:13.881Z,100413.91
2019-04-28T05:01:45.396Z,100422.95
2019-04-28T05:04:19.773Z,100417.60
2019-04-28T05:06:50.668Z,100419.73
2019-04-28T05:09:20.430Z,100417.27
2019-04-28T05:11:50.265Z,100421.23
2019-04-28T05:14:20.141Z,100417.73
2019-04-28T05:16:49.991Z,100429.41
2019-04-28T05:19:20.079Z,100414.66
2019-04-28T05:21:50.024Z,100425.53
2019-04-28T05:24:36.654Z,100424.84
2019-04-28T05:27:06.619Z,100423.91
2019-04-28T05:29:36.551Z,100429.95
2019-04-28T05:32:06.380Z,100414.77
2019-04-28T05:34:41.511Z,100418.78
2019-04-28T05:37:07.975Z,100419.35
2019-04-28T05:39:40.326Z,100420.83
2019-04-28T05:42:11.304Z,100423.67
2019-04-28T05:44:41.324Z,100431.10
2019-04-28T05:47:11.240Z,100434.42
2019-04-28T05:49:49.820Z,100435.06
2019-04-28T05:52:34.043Z,100438.70
2019-04-28T05:55:07.346Z,100438.17
2019-04-28T05:57:39.779Z,100435.13
2019-04-28T06:00:23.363Z,100445.59
2019-04-28T06:02:56.872Z,100437.60
2019-04-28T06:05:26.802Z,100429.38
2019-04-28T06:08:02.491Z,100433.71
2019-04-28T06:10:34.057Z,100439.20
2019-04-28T06:13:03.960Z,100425.17
2019-04-28T06:15:35.331Z,100423.56
2019-04-28T06:18:05.160Z,100436.45
2019-04-28T06:20:37.658Z,100432.88
2019-04-28T06:23:09.895Z,100427.92
2019-04-28T06:25:41.306Z,100421.34
2019-04-28T06:28:11.110Z,100432.03
2019-04-28T06:30:42.467Z,100432.83
2019-04-28T06:33:12.506Z,100424.92
2019-04-28T06:35:42.259Z,100434.55
2019-04-28T06:38:12.381Z,100422.73
2019-04-28T06:40:42.302Z,100427.69
2019-04-28T06:43:12.143Z,100430.41
2019-04-28T06:45:42.101Z,100431.80
2019-04-28T06:48:11.918Z,100442.17
2019-04-28T06:50:41.761Z,100437.50
2019-04-28T06:53:11.574Z,100435.85
2019-04-28T06:55:42.440Z,100438.58
2019-04-28T06:58:12.397Z,100448.16
2019-04-28T07:00:43.664Z,100446.22
2019-04-28T07:03:22.939Z,100439.06
2019-04-28T07:05:45.098Z,100433.77
2019-04-28T07:08:15.044Z,100433.10
2019-04-28T07:10:44.861Z,100433.51
2019-04-28T07:13:14.627Z,100438.19
2019-04-28T07:15:44.442Z,100436.77
2019-04-28T07:18:14.354Z,100422.17
2019-04-28T07:20:45.863Z,100410.88
2019-04-28T07:23:15.782Z,100405.80
2019-04-28T07:25:45.619Z,100408.53
2019-04-28T07:28:15.531Z,100399.16
2019-04-28T07:30:45.483Z,100407.98
2019-04-28T07:33:17.023Z,100411.80
2019-04-28T07:35:46.931Z,100406.52
2019-04-28T07:38:16.704Z,100404.94
2019-04-28T07:40:47.641Z,100411.99
2019-04-28T07:43:17.397Z,100421.47
2019-04-28T07:45:47.258Z,100417.66
2019-04-28T07:48:17.145Z,100417.36
2019-04-28T07:50:47.021Z,100422.26
2019-04-28T07:53:24.522Z,100413.55
2019-04-28T07:55:54.362Z,100411.77
2019-04-28T07:58:25.191Z,100406.13
2019-04-28T08:00:55.119Z,100396.77
2019-04-28T08:03:24.948Z,100391.48
2019-04-28T08:05:54.896Z,100386.78
2019-04-28T08:08:24.727Z,100391.94
2019-04-28T08:10:54.566Z,100387.78
2019-04-28T08:13:24.422Z,100384.34
2019-04-28T08:15:54.321Z,100394.17
2019-04-28T08:18:24.194Z,100397.20
2019-04-28T08:20:54.206Z,100386.75
2019-04-28T08:23:24.423Z,100382.70
2019-04-28T08:25:54.335Z,100374.83
2019-04-28T08:28:24.190Z,100369.45
2019-04-28T08:30:55.109Z,100358.48
2019-04-28T08:33:35.499Z,100364.10
2019-04-28T08:36:04.540Z,100367.94
2019-04-28T08:38:34.332Z,100366.37
2019-04-28T08:41:04.251Z,100368.30
2019-04-28T08:43:34.334Z,100367.17
2019-04-28T08:46:04.292Z,100386.34
2019-04-28T08:48:34.193Z,100374.52
2019-04-28T08:51:04.430Z,100375.09
2019-04-28T08:53:34.286Z,100372.69
2019-04-28T08:56:04.433Z,100375.89
2019-04-28T08:58:34.285Z,100373.28
2019-04-28T09:01:04.275Z,100361.00
2019-04-28T09:03:34.237Z,100359.56
2019-04-28T09:06:04.135Z,100371.34
2019-04-28T09:08:34.039Z,100358.25
2019-04-28T09:11:04.080Z,100372.53
2019-04-28T09:13:33.906Z,100366.41
2019-04-28T09:16:03.666Z,100372.54
2019-04-28T09:18:33.424Z,100345.24
2019-04-28T09:21:04.177Z,100353.86
2019-04-28T09:23:34.248Z,100353.64
2019-04-28T09:26:04.156Z,100354.50
2019-04-28T09:28:34.054Z,100353.62
2019-04-28T09:31:05.332Z,100357.90
2019-04-28T09:33:34.394Z,100361.92
2019-04-28T09:36:04.107Z,100358.08
2019-04-28T09:38:34.031Z,100347.31
2019-04-28T09:41:03.923Z,100355.39
2019-04-28T09:43:53.540Z,100350.07
2019-04-28T09:46:24.986Z,100357.39
2019-04-28T09:48:54.843Z,100366.09
2019-04-28T09:51:24.669Z,100353.95
2019-04-28T09:53:54.506Z,100361.36
2019-04-28T09:56:24.380Z,100376.73
2019-04-28T09:58:54.130Z,100359.75
2019-04-28T10:01:24.051Z,100347.84
2019-04-28T10:03:53.897Z,100372.06
2019-04-28T10:06:23.770Z,100374.33
2019-04-28T10:08:53.550Z,100368.47
2019-04-28T10:11:30.346Z,100368.14
2019-04-28T10:13:57.016Z,100371.25
2019-04-28T10:16:26.572Z,100367.45
2019-04-28T10:18:56.493Z,100369.34
2019-04-28T10:21:26.236Z,100373.55
2019-04-28T10:23:56.247Z,100371.00
2019-04-28T10:26:26.055Z,100374.02
2019-04-28T10:28:55.982Z,100368.09
2019-04-28T10:31:25.859Z,100369.53
2019-04-28T10:33:57.359Z,100369.03
2019-04-28T10:36:28.856Z,100365.67
2019-04-28T10:39:01.332Z,100367.84
2019-04-28T10:41:34.371Z,100364.66
2019-04-28T10:44:04.267Z,100359.88
2019-04-28T10:46:34.181Z,100361.71
2019-04-28T10:49:04.141Z,100371.00
2019-04-28T10:51:33.907Z,100362.72
2019-04-28T10:54:03.802Z,100363.46
2019-04-28T10:56:33.678Z,100344.25
2019-04-28T10:59:03.808Z,100367.45
2019-04-28T11:01:33.723Z,100359.10
2019-04-28T11:04:14.071Z,100353.31
2019-04-28T11:06:43.897Z,100349.91
2019-04-28T11:09:33.330Z,100351.90
2019-04-28T11:12:04.706Z,100351.48
2019-04-28T11:14:34.635Z,100352.41
2019-04-28T11:17:04.491Z,100325.92
2019-04-28T11:19:34.331Z,100339.29
2019-04-28T11:22:04.267Z,100356.09
2019-04-28T11:24:35.314Z,100355.61
2019-04-28T11:27:05.257Z,100344.95
2019-04-28T11:29:35.145Z,100346.06
2019-04-28T11:32:05.165Z,100354.31
2019-04-28T11:34:42.621Z,100351.48
2019-04-28T11:37:12.779Z,100346.13
2019-04-28T11:39:44.184Z,100334.39
2019-04-28T11:42:14.087Z,100331.75
2019-04-28T11:44:43.992Z,100338.83
2019-04-28T11:47:15.393Z,100331.23
2019-04-28T11:49:45.310Z,100324.89
2019-04-28T11:52:15.339Z,100319.90
2019-04-28T11:54:45.246Z,100325.89
2019-04-28T11:57:15.072Z,100311.78
2019-04-28T11:59:44.902Z,100320.84
2019-04-28T12:02:14.831Z,100311.22
2019-04-28T12:04:44.797Z,100300.45
2019-04-28T12:07:14.698Z,100298.83
2019-04-28T12:09:49.218Z,100300.41
2019-04-28T12:12:26.737Z,100305.69
2019-04-28T12:15:07.340Z,100296.95
2019-04-28T12:17:54.509Z,100288.41
2019-04-28T12:20:25.899Z,100280.70
2019-04-28T12:22:55.819Z,100288.88
2019-04-28T12:25:25.713Z,100285.34
2019-04-28T12:27:55.655Z,100267.72
2019-04-28T12:30:25.503Z,100267.72
2019-04-28T12:32:55.283Z,100267.90
2019-04-28T12:35:25.040Z,100261.34
2019-04-28T12:37:54.881Z,100269.16
2019-04-28T12:40:24.707Z,100255.28
2019-04-28T12:42:54.590Z,100258.97
2019-04-28T12:45:34.544Z,100256.51
2019-04-28T12:47:56.005Z,100249.84
2019-04-28T12:50:27.464Z,100248.05
2019-04-28T12:52:57.325Z,100246.17
2019-04-28T12:55:27.148Z,100250.56
2019-04-28T12:57:57.049Z,100245.01
2019-04-28T13:00:34.397Z,100248.51
2019-04-28T13:03:14.721Z,100249.22
2019-04-28T13:06:01.159Z,100242.87
2019-04-28T13:08:21.038Z,100251.27
2019-04-28T13:10:51.173Z,100250.67
2019-04-28T13:13:22.681Z,100254.08
2019-04-28T13:15:52.516Z,100258.86
2019-04-28T13:18:22.391Z,100255.60
2019-04-28T13:20:52.229Z,100253.22
2019-04-28T13:23:22.051Z,100257.55
2019-04-28T13:25:52.056Z,100250.34
2019-04-28T13:28:21.994Z,100254.94
2019-04-28T13:30:51.881Z,100250.59
2019-04-28T13:33:21.801Z,100248.60
2019-04-28T13:35:51.663Z,100240.46
2019-04-28T13:38:21.608Z,100247.88
2019-04-28T13:40:51.363Z,100235.27
2019-04-28T13:43:21.335Z,100231.47
2019-04-28T13:45:51.223Z,100230.70
2019-04-28T13:48:21.008Z,100233.66
2019-04-28T13:50:50.935Z,100220.42
2019-04-28T13:53:20.699Z,100218.87
2019-04-28T13:55:52.275Z,100206.50
2019-04-28T13:58:29.573Z,100217.16
2019-04-28T14:01:06.753Z,100216.92
2019-04-28T14:03:38.203Z,100215.69
2019-04-28T14:06:28.658Z,100219.44
2019-04-28T14:08:56.115Z,100220.00
2019-04-28T14:11:26.107Z,100231.23
2019-04-28T14:13:56.035Z,100222.46
2019-04-28T14:16:26.034Z,100223.53
2019-04-28T14:18:55.972Z,100227.06
2019-04-28T14:21:25.774Z,100228.69
2019-04-28T14:23:55.723Z,100225.99
2019-04-28T14:26:25.554Z,100228.29
2019-04-28T14:28:55.389Z,100228.81
2019-04-28T14:31:25.234Z,100222.66
2019-04-28T14:33:55.177Z,100221.47
2019-04-28T14:36:25.036Z,100209.62
2019-04-28T14:38:55.656Z,100217.50
2019-04-28T14:41:25.453Z,100218.89
2019-04-28T14:43:55.404Z,100216.66
2019-04-28T14:46:25.401Z,100214.13
2019-04-28T14:48:56.560Z,100218.89
2019-04-28T14:51:26.477Z,100216.87
2019-04-28T14:53:56.461Z,100205.84
2019-04-28T14:56:26.355Z,100213.05
2019-04-28T14:58:56.382Z,100206.42
2019-04-28T15:01:42.739Z,100206.87
2019-04-28T15:04:20.645Z,100203.82
2019-04-28T15:06:55.799Z,100202.50
2019-04-28T15:09:26.594Z,100204.97
2019-04-28T15:11:58.134Z,100200.63
2019-04-28T15:14:28.203Z,100200.46
2019-04-28T15:16:58.113Z,100195.63
2019-04-28T15:19:27.958Z,100197.16
2019-04-28T15:21:57.845Z,100191.08
2019-04-28T15:24:27.754Z,100187.17
2019-04-28T15:26:57.725Z,100190.67
2019-04-28T15:29:28.684Z,100183.33
2019-04-28T15:31:59.180Z,100183.94
2019-04-28T15:34:28.995Z,100182.72
2019-04-28T15:37:09.169Z,100179.12
2019-04-28T15:39:30.686Z,100175.84
2019-04-28T15:42:00.701Z,100182.19
2019-04-28T15:44:31.792Z,100178.92
2019-04-28T15:47:01.683Z,100182.23
2019-04-28T15:49:31.614Z,100184.94
2019-04-28T15:52:03.377Z,100181.73
2019-04-28T15:54:33.283Z,100182.71
2019-04-28T15:57:03.351Z,100189.89
2019-04-28T15:59:33.841Z,100187.16
2019-04-28T16:02:02.932Z,100184.87
2019-04-28T16:04:33.684Z,100180.02
2019-04-28T16:07:03.600Z,100179.83
2019-04-28T16:09:33.537Z,100178.06
2019-04-28T16:12:03.331Z,100180.87
2019-04-28T16:14:33.382Z,100173.56
2019-04-28T16:17:03.206Z,100177.95
2019-04-28T16:19:34.116Z,100173.67
2019-04-28T16:22:04.033Z,100176.05
2019-04-28T16:24:33.982Z,100182.25
2019-04-28T16:27:04.540Z,100176.71
2019-04-28T16:29:34.467Z,100185.53
2019-04-28T16:32:04.412Z,100190.45
2019-04-28T16:34:34.333Z,100198.55
2019-04-28T16:37:04.165Z,100195.15
2019-04-28T16:39:34.075Z,100199.75
2019-04-28T16:42:04.716Z,100201.77
2019-04-28T16:44:34.214Z,100202.52
2019-04-28T16:47:13.674Z,100214.72
2019-04-28T16:49:43.531Z,100211.52
2019-04-28T16:52:13.453Z,100219.91
2019-04-28T16:54:43.375Z,100220.05
2019-04-28T16:57:23.911Z,100228.59
2019-04-28T16:59:55.401Z,100231.30
2019-04-28T17:02:26.823Z,100233.80
2019-04-28T17:04:56.699Z,100232.17
2019-04-28T17:07:26.809Z,100234.38
2019-04-28T17:09:57.754Z,100247.00
2019-04-28T17:12:27.748Z,100244.52
2019-04-28T17:14:57.984Z,100246.69
2019-04-28T17:17:29.157Z,100245.79
2019-04-28T17:20:06.496Z,100246.61
2019-04-28T17:22:36.947Z,100250.78
2019-04-28T17:25:08.214Z,100258.52
2019-04-28T17:27:38.065Z,100263.48
2019-04-28T17:30:09.944Z,100270.32
2019-04-28T17:32:39.900Z,100258.53
2019-04-28T17:35:09.646Z,100267.02
2019-04-28T17:37:39.949Z,100263.19
2019-04-28T17:40:13.934Z,100270.05
2019-04-28T17:42:43.936Z,100268.67
2019-04-28T17:45:14.190Z,100280.47
2019-04-28T17:47:44.329Z,100280.22
2019-04-28T17:50:15.547Z,100280.22
2019-04-28T17:52:45.676Z,100288.45
2019-04-28T17:55:24.329Z,100289.26
2019-04-28T17:57:57.863Z,100294.49
2019-04-28T18:00:33.548Z,100294.47
2019-04-28T18:03:17.056Z,100297.44
2019-04-28T18:05:51.280Z,100301.84
2019-04-28T18:08:21.588Z,100308.97
2019-04-28T18:10:51.388Z,100312.76
2019-04-28T18:13:21.388Z,100305.82
2019-04-28T18:16:04.877Z,100316.22
2019-04-28T18:18:37.707Z,100318.69
2019-04-28T18:21:07.647Z,100321.30
2019-04-28T18:23:37.592Z,100316.11
2019-04-28T18:26:07.480Z,100321.61
2019-04-28T18:28:37.329Z,100321.89
2019-04-28T18:31:14.577Z,100322.18
2019-04-28T18:34:01.995Z,100324.36
2019-04-28T18:36:45.386Z,100323.24
2019-04-28T18:39:26.088Z,100328.42
2019-04-28T18:42:00.044Z,100321.03
2019-04-28T18:44:29.837Z,100321.28
2019-04-28T18:46:59.786Z,100328.04
2019-04-28T18:49:29.797Z,100324.38
2019-04-28T18:51:59.714Z,100328.70
2019-04-28T18:54:29.452Z,100317.52
2019-04-28T18:56:59.334Z,100326.67
2019-04-28T18:59:29.074Z,100326.70
2019-04-28T19:02:06.955Z,100320.80
2019-04-28T19:04:36.778Z,100318.09
2019-04-28T19:07:08.294Z,100313.97
2019-04-28T19:09:39.733Z,100316.17
2019-04-28T19:12:14.222Z,100312.89
2019-04-28T19:15:05.042Z,100310.97
2019-04-28T19:17:49.856Z,100313.42
2019-04-28T19:20:19.922Z,100310.95
2019-04-28T19:22:49.995Z,100311.00
2019-04-28T19:25:19.929Z,100314.83
2019-04-28T19:27:49.846Z,100310.68
2019-04-28T19:30:19.878Z,100316.41
2019-04-28T19:32:49.816Z,100316.41
2019-04-28T19:35:19.644Z,100310.19
2019-04-28T19:37:49.461Z,100315.12
2019-04-28T19:40:19.356Z,100315.63
2019-04-28T19:42:49.254Z,100316.44
2019-04-28T19:45:20.992Z,100318.58
2019-04-28T19:47:50.110Z,100318.83
2019-04-28T19:50:19.882Z,100319.16
2019-04-28T19:52:50.825Z,100325.80
2019-04-28T19:55:22.314Z,100320.88
2019-04-28T19:57:56.676Z,100320.09
2019-04-28T20:00:28.160Z,100326.08
2019-04-28T20:02:58.057Z,100326.89
2019-04-28T20:05:29.446Z,100324.95
2019-04-28T20:07:59.517Z,100327.75
2019-04-28T20:10:29.434Z,100326.38
2019-04-28T20:12:59.489Z,100322.84
2019-04-28T20:15:29.415Z,100331.89
2019-04-28T20:18:00.340Z,100337.72
2019-04-28T20:20:31.420Z,100332.19
2019-04-28T20:23:01.358Z,100336.37
2019-04-28T20:25:32.762Z,100333.89
2019-04-28T20:28:02.681Z,100328.95
2019-04-28T20:30:32.506Z,100338.54
2019-04-28T20:33:07.315Z,100346.30
2019-04-28T20:35:35.703Z,100347.14
2019-04-28T20:38:07.179Z,100343.02
2019-04-28T20:40:44.480Z,100346.04
2019-04-28T20:43:15.902Z,100343.83
2019-04-28T20:45:45.792Z,100347.45
2019-04-28T20:48:15.615Z,100340.61
2019-04-28T20:50:45.432Z,100340.05
2019-04-28T20:53:15.282Z,100340.88
2019-04-28T20:55:45.164Z,100347.75
2019-04-28T20:58:15.047Z,100348.85
2019-04-28T21:00:44.840Z,100352.67
2019-04-28T21:03:14.708Z,100353.80
2019-04-28T21:05:44.596Z,100358.76
2019-04-28T21:08:14.358Z,100348.87
2019-04-28T21:10:44.281Z,100354.64
2019-04-28T21:13:14.183Z,100357.94
2019-04-28T21:15:44.015Z,100360.71
2019-04-28T21:18:14.618Z,100359.61
2019-04-28T21:20:43.651Z,100363.16
2019-04-28T21:23:13.379Z,100365.08
2019-04-28T21:25:43.267Z,100365.91
2019-04-28T21:28:12.951Z,100366.98
2019-04-28T21:30:42.829Z,100361.77
2019-04-28T21:33:12.691Z,100369.72
2019-04-28T21:35:42.440Z,100363.95
2019-04-28T21:38:12.343Z,100368.63
2019-04-28T21:40:43.300Z,100372.20
2019-04-28T21:43:17.487Z,100374.95
2019-04-28T21:45:50.452Z,100363.95
2019-04-28T21:48:40.176Z,100368.89
2019-04-28T21:51:11.921Z,100365.31
2019-04-28T21:53:41.549Z,100371.61
2019-04-28T21:56:11.346Z,100371.05
2019-04-28T21:58:41.161Z,100367.78
2019-04-28T22:01:14.015Z,100367.20
2019-04-28T22:03:44.037Z,100368.05
2019-04-28T22:06:13.947Z,100366.92
2019-04-28T22:08:43.752Z,100360.89
2019-04-28T22:11:13.490Z,100359.55
2019-04-28T22:13:43.240Z,100365.87
2019-04-28T22:16:13.095Z,100364.23
2019-04-28T22:18:42.834Z,100366.14
2019-04-28T22:21:12.612Z,100367.52
2019-04-28T22:23:56.186Z,100361.75
2019-04-28T22:26:43.566Z,100363.96
2019-04-28T22:29:14.099Z,100362.84
2019-04-28T22:31:45.397Z,100364.20
2019-04-28T22:34:15.385Z,100363.08
2019-04-28T22:36:46.535Z,100362.53
2019-04-28T22:39:17.181Z,100357.34
2019-04-28T22:41:46.141Z,100353.45
2019-04-28T22:44:16.001Z,100359.48
2019-04-28T22:46:45.768Z,100353.44
2019-04-28T22:49:15.586Z,100353.41
2019-04-28T22:51:45.522Z,100358.33
2019-04-28T22:54:25.615Z,100349.84
2019-04-28T22:56:57.069Z,100350.67
2019-04-28T22:59:28.379Z,100349.27
2019-04-28T23:02:05.770Z,100349.26
2019-04-28T23:04:43.178Z,100349.59
2019-04-28T23:07:13.550Z,100352.00
2019-04-28T23:09:43.419Z,100357.41
2019-04-28T23:12:13.509Z,100360.00
2019-04-28T23:14:43.278Z,100359.59
2019-04-28T23:17:14.724Z,100355.32
2019-04-28T23:19:44.614Z,100356.02
2019-04-28T23:22:19.385Z,100350.05
2019-04-28T23:24:49.323Z,100358.34
2019-04-28T23:27:19.150Z,100356.67
2019-04-28T23:29:48.898Z,100359.34
2019-04-28T23:32:18.788Z,100355.92
2019-04-28T23:34:48.687Z,100357.02
2019-04-28T23:37:18.586Z,100362.48
2019-04-28T23:39:48.435Z,100362.94
2019-04-28T23:42:19.806Z,100362.63
2019-04-28T23:44:49.704Z,100364.13
2019-04-28T23:47:19.573Z,100363.58
2019-04-28T23:49:49.332Z,100358.73
2019-04-28T23:52:20.710Z,100357.34
2019-04-28T23:54:55.055Z,100365.94
2019-04-28T23:57:24.937Z,100364.64
2019-04-28T23:59:54.696Z,100364.00
